PWSweather.com
Personal Weather Stations
Station Observations
KCOGRAND2
Redlands, Southcamp Road & Dakota Circle, Grand Junction, CO 81507

Redlands, Southcamp Road & Dakota CircleGrand Junction, CO 81507

Lat: 39.055, Lon: -108.637

Elevation: 4870

Station Type: RadioShack WX200

High Low Average
Temperature 77.5°F25.3°C 39.4°F4.1°C 57.4°F14.1°C
Dew Point 3.9°F-15.6°C -7.2°F-21.8°C -3.0°F-19.4°C
Winds 14.0 mph 22.5 kmh Calm Calm 5.0 mph S8.0 kmh S
Wind Gusts 23.7 mph38.1 kmh -- 8.0 mph12.9 kmh
Humidity 17% 11% 13%
Pressure 25.07 in849.0 mb 24.89 in842.9 mb -
Precipitation 0.00 in0.0 mm - -
Hour Temp Dew Point Humidity Winds Wind Gusts Pressure Precip Precip Rate Daily Precip Total
12:03 AM 54.5°F12.5°C -5537.2°C - 6.0 mph WSW9.7 kmh WSW 11.0 mph17.7 kmh 25.04 in848.0 mb 0.00 in0.0 mm 0.00 in/hr0.0 mm/hr 0.00 in0.0 mm
12:08 AM 54.5°F12.5°C -5537.2°C - 6.0 mph WSW9.7 kmh WSW 9.6 mph15.4 kmh 25.04 in848.0 mb 0.00 in0.0 mm 0.00 in/hr0.0 mm/hr 0.00 in0.0 mm
12:13 AM 54.1°F12.3°C -5537.2°C - 5.0 mph SW8.0 kmh SW 8.7 mph14.0 kmh 25.04 in848.0 mb 0.00 in0.0 mm 0.00 in/hr0.0 mm/hr 0.00 in0.0 mm
12:18 AM 53.6°F12.0°C -5537.2°C - 4.0 mph SW6.4 kmh SW 6.3 mph10.1 kmh 25.04 in848.0 mb 0.00 in0.0 mm 0.00 in/hr0.0 mm/hr 0.00 in0.0 mm
12:23 AM 53.1°F11.7°C -5537.2°C - 2.0 mph WSW3.2 kmh WSW 3.1 mph5.0 kmh 25.04 in848.0 mb 0.00 in0.0 mm 0.00 in/hr0.0 mm/hr 0.00 in0.0 mm
12:28 AM 52.9°F11.6°C -5537.2°C - 1.0 mph WSW1.6 kmh WSW 4.5 mph7.2 kmh 25.04 in848.0 mb 0.00 in0.0 mm 0.00 in/hr0.0 mm/hr 0.00 in0.0 mm
12:33 AM 52.7°F11.5°C -5537.2°C - 2.0 mph W3.2 kmh W 4.0 mph6.4 kmh 25.04 in848.0 mb 0.00 in0.0 mm 0.00 in/hr0.0 mm/hr 0.00 in0.0 mm
12:43 AM 51.4°F10.8°C -5537.2°C - 3.0 mph SW4.8 kmh SW 5.8 mph9.3 kmh 25.04 in848.0 mb 0.00 in0.0 mm 0.00 in/hr0.0 mm/hr 0.00 in0.0 mm
12:48 AM 51.1°F10.6°C -5537.2°C - 3.0 mph S4.8 kmh S 5.4 mph8.7 kmh 25.04 in848.0 mb 0.00 in0.0 mm 0.00 in/hr0.0 mm/hr 0.00 in0.0 mm
12:53 AM 50.5°F10.3°C -5537.2°C - 3.0 mph S4.8 kmh S 5.4 mph8.7 kmh 25.04 in848.0 mb 0.00 in0.0 mm 0.00 in/hr0.0 mm/hr 0.00 in0.0 mm
12:58 AM 50.2°F10.1°C -5537.2°C - 2.0 mph S3.2 kmh S 5.4 mph8.7 kmh 25.04 in848.0 mb 0.00 in0.0 mm 0.00 in/hr0.0 mm/hr 0.00 in0.0 mm
01:03 AM 48.4°F9.1°C -5537.2°C - 2.0 mph S3.2 kmh S 5.4 mph8.7 kmh 25.04 in848.0 mb 0.00 in0.0 mm 0.00 in/hr0.0 mm/hr 0.00 in0.0 mm
01:08 AM 47.8°F8.8°C -5537.2°C - 2.0 mph S3.2 kmh S 3.6 mph5.8 kmh 25.04 in848.0 mb 0.00 in0.0 mm 0.00 in/hr0.0 mm/hr 0.00 in0.0 mm
01:13 AM 47.5°F8.6°C -5537.2°C - 1.0 mph S1.6 kmh S 3.1 mph5.0 kmh 25.04 in848.0 mb 0.00 in0.0 mm 0.00 in/hr0.0 mm/hr 0.00 in0.0 mm
01:18 AM 47.7°F8.7°C -5537.2°C - Calm Calm 3.1 mph5.0 kmh 25.04 in848.0 mb 0.00 in0.0 mm 0.00 in/hr0.0 mm/hr 0.00 in0.0 mm
01:23 AM 48.4°F9.1°C -5537.2°C - 1.0 mph S1.6 kmh S 4.0 mph6.4 kmh 25.04 in848.0 mb 0.00 in0.0 mm 0.00 in/hr0.0 mm/hr 0.00 in0.0 mm
01:28 AM 47.8°F8.8°C -5537.2°C - 1.0 mph S1.6 kmh S 3.6 mph5.8 kmh 25.07 in849.0 mb 0.00 in0.0 mm 0.00 in/hr0.0 mm/hr 0.00 in0.0 mm
01:33 AM 46.9°F8.3°C -5537.2°C - 2.0 mph SSW3.2 kmh SSW 4.0 mph6.4 kmh 25.07 in849.0 mb 0.00 in0.0 mm 0.00 in/hr0.0 mm/hr 0.00 in0.0 mm
01:38 AM 46.2°F7.9°C -3.5°F-19.7°C 12% 3.0 mph WSW4.8 kmh WSW 5.4 mph8.7 kmh 25.07 in849.0 mb 0.00 in0.0 mm 0.00 in/hr0.0 mm/hr 0.00 in0.0 mm
01:43 AM 45.5°F7.5°C -0.9°F-18.3°C 14% 4.0 mph WNW6.4 kmh WNW 5.4 mph8.7 kmh 25.07 in849.0 mb 0.00 in0.0 mm 0.00 in/hr0.0 mm/hr 0.00 in0.0 mm
01:48 AM 46.2°F7.9°C -0.2°F-17.9°C 14% 4.0 mph WNW6.4 kmh WNW 6.7 mph10.8 kmh 25.07 in849.0 mb 0.00 in0.0 mm 0.00 in/hr0.0 mm/hr 0.00 in0.0 mm
01:53 AM 46.4°F8.0°C -0.2°F-17.9°C 14% 4.0 mph WNW6.4 kmh WNW 4.9 mph7.9 kmh 25.07 in849.0 mb 0.00 in0.0 mm 0.00 in/hr0.0 mm/hr 0.00 in0.0 mm
01:58 AM 46.2°F7.9°C 3.9°F-15.6°C 17% 3.0 mph WNW4.8 kmh WNW 4.5 mph7.2 kmh 25.07 in849.0 mb 0.00 in0.0 mm 0.00 in/hr0.0 mm/hr 0.00 in0.0 mm
02:03 AM 46.2°F7.9°C 3.9°F-15.6°C 17% 3.0 mph WNW4.8 kmh WNW 4.9 mph7.9 kmh 25.07 in849.0 mb 0.00 in0.0 mm 0.00 in/hr0.0 mm/hr 0.00 in0.0 mm
02:08 AM 45.5°F7.5°C 3.2°F-16.0°C 17% 2.0 mph WNW3.2 kmh WNW 3.6 mph5.8 kmh 25.07 in849.0 mb 0.00 in0.0 mm 0.00 in/hr0.0 mm/hr 0.00 in0.0 mm
02:13 AM 46.0°F7.8°C -0.4°F-18.0°C 14% 2.0 mph WNW3.2 kmh WNW 4.0 mph6.4 kmh 25.07 in849.0 mb 0.00 in0.0 mm 0.00 in/hr0.0 mm/hr 0.00 in0.0 mm
02:18 AM 46.6°F8.1°C -3.3°F-19.6°C 12% 2.0 mph W3.2 kmh W 5.4 mph8.7 kmh 25.07 in849.0 mb 0.00 in0.0 mm 0.00 in/hr0.0 mm/hr 0.00 in0.0 mm
02:23 AM 47.3°F8.5°C -4.5°F-20.3°C 11% 2.0 mph WSW3.2 kmh WSW 4.9 mph7.9 kmh 25.07 in849.0 mb 0.00 in0.0 mm 0.00 in/hr0.0 mm/hr 0.00 in0.0 mm
02:28 AM 48.2°F9.0°C -3.8°F-19.9°C 11% 1.0 mph WSW1.6 kmh WSW 2.7 mph4.3 kmh 25.07 in849.0 mb 0.00 in0.0 mm 0.00 in/hr0.0 mm/hr 0.00 in0.0 mm
02:33 AM 48.4°F9.1°C -3.6°F-19.8°C 11% Calm Calm -- 25.07 in849.0 mb 0.00 in0.0 mm 0.00 in/hr0.0 mm/hr 0.00 in0.0 mm
02:38 AM 48.7°F9.3°C -3.5°F-19.7°C 11% Calm Calm 3.6 mph5.8 kmh 25.07 in849.0 mb 0.00 in0.0 mm 0.00 in/hr0.0 mm/hr 0.00 in0.0 mm
02:43 AM 49.5°F9.7°C -5537.2°C - 2.0 mph SW3.2 kmh SW 5.4 mph8.7 kmh 25.04 in848.0 mb 0.00 in0.0 mm 0.00 in/hr0.0 mm/hr 0.00 in0.0 mm
02:48 AM 49.3°F9.6°C -2.9°F-19.4°C 11% 4.0 mph S6.4 kmh S 6.3 mph10.1 kmh 25.04 in848.0 mb 0.00 in0.0 mm 0.00 in/hr0.0 mm/hr 0.00 in0.0 mm
02:53 AM 48.2°F9.0°C -3.8°F-19.9°C 11% 4.0 mph SSE6.4 kmh SSE 5.8 mph9.3 kmh 25.04 in848.0 mb 0.00 in0.0 mm 0.00 in/hr0.0 mm/hr 0.00 in0.0 mm
02:58 AM 48.2°F9.0°C -3.8°F-19.9°C 11% 3.0 mph ESE4.8 kmh ESE 5.8 mph9.3 kmh 25.04 in848.0 mb 0.00 in0.0 mm 0.00 in/hr0.0 mm/hr 0.00 in0.0 mm
03:03 AM 47.5°F8.6°C -4.4°F-20.2°C 11% 2.0 mph ESE3.2 kmh ESE 5.4 mph8.7 kmh 25.04 in848.0 mb 0.00 in0.0 mm 0.00 in/hr0.0 mm/hr 0.00 in0.0 mm
03:08 AM 47.5°F8.6°C -4.4°F-20.2°C 11% 4.0 mph E6.4 kmh E 6.7 mph10.8 kmh 25.04 in848.0 mb 0.00 in0.0 mm 0.00 in/hr0.0 mm/hr 0.00 in0.0 mm
03:13 AM 47.3°F8.5°C -2.7°F-19.3°C 12% 5.0 mph E8.0 kmh E 7.4 mph11.9 kmh 25.04 in848.0 mb 0.00 in0.0 mm 0.00 in/hr0.0 mm/hr 0.00 in0.0 mm
03:18 AM 47.1°F8.4°C -2.9°F-19.4°C 12% 6.0 mph E9.7 kmh E 6.9 mph11.1 kmh 25.04 in848.0 mb 0.00 in0.0 mm 0.00 in/hr0.0 mm/hr 0.00 in0.0 mm
03:24 AM 47.3°F8.5°C -4.5°F-20.3°C 11% 5.0 mph E8.0 kmh E 6.3 mph10.1 kmh 25.04 in848.0 mb 0.00 in0.0 mm 0.00 in/hr0.0 mm/hr 0.00 in0.0 mm
03:29 AM 47.3°F8.5°C -4.5°F-20.3°C 11% 4.0 mph E6.4 kmh E 6.3 mph10.1 kmh 25.04 in848.0 mb 0.00 in0.0 mm 0.00 in/hr0.0 mm/hr 0.00 in0.0 mm
03:34 AM 47.1°F8.4°C -2.9°F-19.4°C 12% 4.0 mph SE6.4 kmh SE 6.7 mph10.8 kmh 25.04 in848.0 mb 0.00 in0.0 mm 0.00 in/hr0.0 mm/hr 0.00 in0.0 mm
03:39 AM 45.9°F7.7°C -3.8°F-19.9°C 12% 3.0 mph SE4.8 kmh SE 3.6 mph5.8 kmh 25.04 in848.0 mb 0.00 in0.0 mm 0.00 in/hr0.0 mm/hr 0.00 in0.0 mm
03:44 AM 45.3°F7.4°C -4.2°F-20.1°C 12% 2.0 mph SE3.2 kmh SE 3.6 mph5.8 kmh 25.04 in848.0 mb 0.00 in0.0 mm 0.00 in/hr0.0 mm/hr 0.00 in0.0 mm
03:49 AM 45.3°F7.4°C -4.2°F-20.1°C 12% 1.0 mph SE1.6 kmh SE 3.1 mph5.0 kmh 25.04 in848.0 mb 0.00 in0.0 mm 0.00 in/hr0.0 mm/hr 0.00 in0.0 mm
03:54 AM 45.0°F7.2°C -4.5°F-20.3°C 12% Calm Calm -- 25.04 in848.0 mb 0.00 in0.0 mm 0.00 in/hr0.0 mm/hr 0.00 in0.0 mm
03:59 AM 45.7°F7.6°C -4.0°F-20.0°C 12% 1.0 mph SE1.6 kmh SE 4.0 mph6.4 kmh 25.04 in848.0 mb 0.00 in0.0 mm 0.00 in/hr0.0 mm/hr 0.00 in0.0 mm
04:04 AM 46.0°F7.8°C -3.6°F-19.8°C 12% 3.0 mph SE4.8 kmh SE 4.5 mph7.2 kmh 25.04 in848.0 mb 0.00 in0.0 mm 0.00 in/hr0.0 mm/hr 0.00 in0.0 mm
04:09 AM 45.0°F7.2°C -4.5°F-20.3°C 12% 3.0 mph SE4.8 kmh SE 4.9 mph7.9 kmh 25.04 in848.0 mb 0.00 in0.0 mm 0.00 in/hr0.0 mm/hr 0.00 in0.0 mm
04:14 AM 44.2°F6.8°C -5.1°F-20.6°C 12% 3.0 mph SE4.8 kmh SE 6.3 mph10.1 kmh 25.04 in848.0 mb 0.00 in0.0 mm 0.00 in/hr0.0 mm/hr 0.00 in0.0 mm
04:19 AM 43.5°F6.4°C -4.0°F-20.0°C 13% 4.0 mph ESE6.4 kmh ESE 6.7 mph10.8 kmh 25.04 in848.0 mb 0.00 in0.0 mm 0.00 in/hr0.0 mm/hr 0.00 in0.0 mm
04:24 AM 41.9°F5.5°C -5.3°F-20.7°C 13% 4.0 mph SE6.4 kmh SE 5.4 mph8.7 kmh 25.04 in848.0 mb 0.00 in0.0 mm 0.00 in/hr0.0 mm/hr 0.00 in0.0 mm
04:29 AM 40.6°F4.8°C -6.3°F-21.3°C 13% 2.0 mph SE3.2 kmh SE 3.6 mph5.8 kmh 25.04 in848.0 mb 0.00 in0.0 mm 0.00 in/hr0.0 mm/hr 0.00 in0.0 mm
04:34 AM 41.2°F5.1°C -5.8°F-21.0°C 13% 2.0 mph SE3.2 kmh SE 5.4 mph8.7 kmh 25.04 in848.0 mb 0.00 in0.0 mm 0.00 in/hr0.0 mm/hr 0.00 in0.0 mm
04:39 AM 41.5°F5.3°C -5.6°F-20.9°C 13% 4.0 mph SE6.4 kmh SE 5.8 mph9.3 kmh 25.04 in848.0 mb 0.00 in0.0 mm 0.00 in/hr0.0 mm/hr 0.00 in0.0 mm
04:44 AM 41.4°F5.2°C -5.8°F-21.0°C 13% 5.0 mph SE8.0 kmh SE 6.3 mph10.1 kmh 25.04 in848.0 mb 0.00 in0.0 mm 0.00 in/hr0.0 mm/hr 0.00 in0.0 mm
04:49 AM 40.8°F4.9°C -6.2°F-21.2°C 13% 4.0 mph SE6.4 kmh SE 5.4 mph8.7 kmh 25.04 in848.0 mb 0.00 in0.0 mm 0.00 in/hr0.0 mm/hr 0.00 in0.0 mm
04:54 AM 41.0°F5.0°C -6.0°F-21.1°C 13% 4.0 mph SE6.4 kmh SE 4.0 mph6.4 kmh 25.04 in848.0 mb 0.00 in0.0 mm 0.00 in/hr0.0 mm/hr 0.00 in0.0 mm
04:59 AM 40.8°F4.9°C -6.2°F-21.2°C 13% 4.0 mph SE6.4 kmh SE 6.3 mph10.1 kmh 25.04 in848.0 mb 0.00 in0.0 mm 0.00 in/hr0.0 mm/hr 0.00 in0.0 mm
05:04 AM 41.2°F5.1°C -5.8°F-21.0°C 13% 5.0 mph SE8.0 kmh SE 6.7 mph10.8 kmh 25.04 in848.0 mb 0.00 in0.0 mm 0.00 in/hr0.0 mm/hr 0.00 in0.0 mm
05:09 AM 40.8°F4.9°C -6.2°F-21.2°C 13% 4.0 mph SE6.4 kmh SE 5.4 mph8.7 kmh 25.04 in848.0 mb 0.00 in0.0 mm 0.00 in/hr0.0 mm/hr 0.00 in0.0 mm
05:14 AM 40.3°F4.6°C -6.5°F-21.4°C 13% 3.0 mph SE4.8 kmh SE 5.4 mph8.7 kmh 25.04 in848.0 mb 0.00 in0.0 mm 0.00 in/hr0.0 mm/hr 0.00 in0.0 mm
05:19 AM 41.4°F5.2°C -5.8°F-21.0°C 13% 3.0 mph SE4.8 kmh SE 5.8 mph9.3 kmh 25.04 in848.0 mb 0.00 in0.0 mm 0.00 in/hr0.0 mm/hr 0.00 in0.0 mm
05:24 AM 41.0°F5.0°C -6.0°F-21.1°C 13% 4.0 mph SE6.4 kmh SE 5.8 mph9.3 kmh 25.04 in848.0 mb 0.00 in0.0 mm 0.00 in/hr0.0 mm/hr 0.00 in0.0 mm
05:29 AM 39.4°F4.1°C -7.2°F-21.8°C 13% 3.0 mph S4.8 kmh S 5.4 mph8.7 kmh 25.07 in849.0 mb 0.00 in0.0 mm 0.00 in/hr0.0 mm/hr 0.00 in0.0 mm
05:34 AM 39.4°F4.1°C -7.2°F-21.8°C 13% 2.0 mph SW3.2 kmh SW 3.1 mph5.0 kmh 25.07 in849.0 mb 0.00 in0.0 mm 0.00 in/hr0.0 mm/hr 0.00 in0.0 mm
05:39 AM 40.1°F4.5°C -2.4°F-19.1°C 16% Calm Calm 3.1 mph5.0 kmh 25.07 in849.0 mb 0.00 in0.0 mm 0.00 in/hr0.0 mm/hr 0.00 in0.0 mm
05:44 AM 40.6°F4.8°C -2.0°F-18.9°C 16% Calm Calm 2.7 mph4.3 kmh 25.07 in849.0 mb 0.00 in0.0 mm 0.00 in/hr0.0 mm/hr 0.00 in0.0 mm
05:50 AM 40.8°F4.9°C -6.2°F-21.2°C 13% Calm Calm -- 25.07 in849.0 mb 0.00 in0.0 mm 0.00 in/hr0.0 mm/hr 0.00 in0.0 mm
05:55 AM 41.4°F5.2°C -5.8°F-21.0°C 13% 1.0 mph SW1.6 kmh SW 4.5 mph7.2 kmh 25.07 in849.0 mb 0.00 in0.0 mm 0.00 in/hr0.0 mm/hr 0.00 in0.0 mm
06:00 AM 41.5°F5.3°C -5.6°F-20.9°C 13% 2.0 mph SSE3.2 kmh SSE 5.8 mph9.3 kmh 25.07 in849.0 mb 0.00 in0.0 mm 0.00 in/hr0.0 mm/hr 0.00 in0.0 mm
06:05 AM 40.5°F4.7°C -6.5°F-21.4°C 13% 3.0 mph E4.8 kmh E 4.0 mph6.4 kmh 25.07 in849.0 mb 0.00 in0.0 mm 0.00 in/hr0.0 mm/hr 0.00 in0.0 mm
06:10 AM 39.9°F4.4°C -2.6°F-19.2°C 16% 1.0 mph E1.6 kmh E 3.6 mph5.8 kmh 25.07 in849.0 mb 0.00 in0.0 mm 0.00 in/hr0.0 mm/hr 0.00 in0.0 mm
06:15 AM 40.6°F4.8°C -2.0°F-18.9°C 16% 1.0 mph E1.6 kmh E 3.1 mph5.0 kmh 25.07 in849.0 mb 0.00 in0.0 mm 0.00 in/hr0.0 mm/hr 0.00 in0.0 mm
06:20 AM 41.4°F5.2°C -1.5°F-18.6°C 16% 1.0 mph E1.6 kmh E 4.5 mph7.2 kmh 25.07 in849.0 mb 0.00 in0.0 mm 0.00 in/hr0.0 mm/hr 0.00 in0.0 mm
06:25 AM 41.7°F5.4°C -1.1°F-18.4°C 16% 2.0 mph E3.2 kmh E 4.9 mph7.9 kmh 25.07 in849.0 mb 0.00 in0.0 mm 0.00 in/hr0.0 mm/hr 0.00 in0.0 mm
06:30 AM 40.5°F4.7°C -2.2°F-19.0°C 16% 3.0 mph E4.8 kmh E 4.9 mph7.9 kmh 25.07 in849.0 mb 0.00 in0.0 mm 0.00 in/hr0.0 mm/hr 0.00 in0.0 mm
06:35 AM 39.4°F4.1°C -3.1°F-19.5°C 16% 2.0 mph ESE3.2 kmh ESE 4.5 mph7.2 kmh 25.07 in849.0 mb 0.00 in0.0 mm 0.00 in/hr0.0 mm/hr 0.00 in0.0 mm
06:40 AM 40.5°F4.7°C -2.2°F-19.0°C 16% 3.0 mph ESE4.8 kmh ESE 4.9 mph7.9 kmh 25.07 in849.0 mb 0.00 in0.0 mm 0.00 in/hr0.0 mm/hr 0.00 in0.0 mm
06:45 AM 41.2°F5.1°C -1.5°F-18.6°C 16% 4.0 mph ESE6.4 kmh ESE 6.9 mph11.1 kmh 25.07 in849.0 mb 0.00 in0.0 mm 0.00 in/hr0.0 mm/hr 0.00 in0.0 mm
06:50 AM 39.7°F4.3°C -2.7°F-19.3°C 16% 5.0 mph SE8.0 kmh SE 6.9 mph11.1 kmh 25.07 in849.0 mb 0.00 in0.0 mm 0.00 in/hr0.0 mm/hr 0.00 in0.0 mm
06:55 AM 40.3°F4.6°C -2.4°F-19.1°C 16% 5.0 mph SE8.0 kmh SE 6.7 mph10.8 kmh 25.07 in849.0 mb 0.00 in0.0 mm 0.00 in/hr0.0 mm/hr 0.00 in0.0 mm
07:00 AM 39.6°F4.2°C -2.9°F-19.4°C 16% 5.0 mph SE8.0 kmh SE 5.8 mph9.3 kmh 25.07 in849.0 mb 0.00 in0.0 mm 0.00 in/hr0.0 mm/hr 0.00 in0.0 mm
07:05 AM 40.5°F4.7°C -2.2°F-19.0°C 16% 5.0 mph SE8.0 kmh SE 6.7 mph10.8 kmh 25.07 in849.0 mb 0.00 in0.0 mm 0.00 in/hr0.0 mm/hr 0.00 in0.0 mm
07:10 AM 41.0°F5.0°C -1.7°F-18.7°C 16% 5.0 mph SE8.0 kmh SE 7.4 mph11.9 kmh 25.07 in849.0 mb 0.00 in0.0 mm 0.00 in/hr0.0 mm/hr 0.00 in0.0 mm
07:20 AM 43.7°F6.5°C -0.9°F-18.3°C 15% 5.0 mph ESE8.0 kmh ESE 7.4 mph11.9 kmh 25.07 in849.0 mb 0.00 in0.0 mm 0.00 in/hr0.0 mm/hr 0.00 in0.0 mm
07:25 AM 44.6°F7.0°C -0.2°F-17.9°C 15% 5.0 mph ESE8.0 kmh ESE 8.7 mph14.0 kmh 25.07 in849.0 mb 0.00 in0.0 mm 0.00 in/hr0.0 mm/hr 0.00 in0.0 mm
07:30 AM 45.1°F7.3°C 0.3°F-17.6°C 15% 5.0 mph E8.0 kmh E 6.3 mph10.1 kmh 25.07 in849.0 mb 0.00 in0.0 mm 0.00 in/hr0.0 mm/hr 0.00 in0.0 mm
07:35 AM 45.9°F7.7°C -0.6°F-18.1°C 14% 4.0 mph ESE6.4 kmh ESE 6.3 mph10.1 kmh 25.07 in849.0 mb 0.00 in0.0 mm 0.00 in/hr0.0 mm/hr 0.00 in0.0 mm
07:40 AM 46.6°F8.1°C 0.0°F-17.8°C 14% 2.0 mph SE3.2 kmh SE 4.0 mph6.4 kmh 25.07 in849.0 mb 0.00 in0.0 mm 0.00 in/hr0.0 mm/hr 0.00 in0.0 mm
07:45 AM 46.2°F7.9°C -0.2°F-17.9°C 14% 2.0 mph SE3.2 kmh SE 6.3 mph10.1 kmh 25.07 in849.0 mb 0.00 in0.0 mm 0.00 in/hr0.0 mm/hr 0.00 in0.0 mm
07:51 AM 47.1°F8.4°C 0.5°F-17.5°C 14% 3.0 mph SE4.8 kmh SE 5.8 mph9.3 kmh 25.07 in849.0 mb 0.00 in0.0 mm 0.00 in/hr0.0 mm/hr 0.00 in0.0 mm
07:56 AM 47.8°F8.8°C 1.0°F-17.2°C 14% 4.0 mph SE6.4 kmh SE 5.4 mph8.7 kmh 25.07 in849.0 mb 0.00 in0.0 mm 0.00 in/hr0.0 mm/hr 0.00 in0.0 mm
08:01 AM 48.2°F9.0°C 1.2°F-17.1°C 14% 4.0 mph ESE6.4 kmh ESE 6.3 mph10.1 kmh 25.07 in849.0 mb 0.00 in0.0 mm 0.00 in/hr0.0 mm/hr 0.00 in0.0 mm
08:06 AM 48.6°F9.2°C -3.5°F-19.7°C 11% 5.0 mph ESE8.0 kmh ESE 7.8 mph12.6 kmh 25.07 in849.0 mb 0.00 in0.0 mm 0.00 in/hr0.0 mm/hr 0.00 in0.0 mm
08:11 AM 49.5°F9.7°C -2.7°F-19.3°C 11% 5.0 mph ESE8.0 kmh ESE 7.4 mph11.9 kmh 25.07 in849.0 mb 0.00 in0.0 mm 0.00 in/hr0.0 mm/hr 0.00 in0.0 mm
08:16 AM 49.3°F9.6°C -2.9°F-19.4°C 11% 5.0 mph ESE8.0 kmh ESE 9.2 mph14.8 kmh 25.07 in849.0 mb 0.00 in0.0 mm 0.00 in/hr0.0 mm/hr 0.00 in0.0 mm
08:21 AM 49.3°F9.6°C -2.9°F-19.4°C 11% 6.0 mph ESE9.7 kmh ESE 10.1 mph16.3 kmh 25.07 in849.0 mb 0.00 in0.0 mm 0.00 in/hr0.0 mm/hr 0.00 in0.0 mm
08:26 AM 49.3°F9.6°C -2.9°F-19.4°C 11% 7.0 mph ESE11.3 kmh ESE 10.5 mph16.9 kmh 25.07 in849.0 mb 0.00 in0.0 mm 0.00 in/hr0.0 mm/hr 0.00 in0.0 mm
08:31 AM 50.2°F10.1°C -2.2°F-19.0°C 11% 7.0 mph ESE11.3 kmh ESE 9.6 mph15.4 kmh 25.07 in849.0 mb 0.00 in0.0 mm 0.00 in/hr0.0 mm/hr 0.00 in0.0 mm
08:36 AM 50.4°F10.2°C -2.2°F-19.0°C 11% 6.0 mph ESE9.7 kmh ESE 8.7 mph14.0 kmh 25.07 in849.0 mb 0.00 in0.0 mm 0.00 in/hr0.0 mm/hr 0.00 in0.0 mm
08:41 AM 51.3°F10.7°C -1.5°F-18.6°C 11% 6.0 mph ESE9.7 kmh ESE 8.3 mph13.4 kmh 25.07 in849.0 mb 0.00 in0.0 mm 0.00 in/hr0.0 mm/hr 0.00 in0.0 mm
08:46 AM 52.0°F11.1°C -0.9°F-18.3°C 11% 5.0 mph ESE8.0 kmh ESE 8.7 mph14.0 kmh 25.07 in849.0 mb 0.00 in0.0 mm 0.00 in/hr0.0 mm/hr 0.00 in0.0 mm
08:51 AM 52.2°F11.2°C -0.8°F-18.2°C 11% 5.0 mph ESE8.0 kmh ESE 6.9 mph11.1 kmh 25.07 in849.0 mb 0.00 in0.0 mm 0.00 in/hr0.0 mm/hr 0.00 in0.0 mm
08:56 AM 53.6°F12.0°C -5537.2°C - 5.0 mph ESE8.0 kmh ESE 7.4 mph11.9 kmh 25.07 in849.0 mb 0.00 in0.0 mm 0.00 in/hr0.0 mm/hr 0.00 in0.0 mm
09:01 AM 52.9°F11.6°C -5537.2°C - 5.0 mph E8.0 kmh E 8.3 mph13.4 kmh 25.07 in849.0 mb 0.00 in0.0 mm 0.00 in/hr0.0 mm/hr 0.00 in0.0 mm
09:06 AM 53.8°F12.1°C -5537.2°C - 5.0 mph ESE8.0 kmh ESE 8.3 mph13.4 kmh 25.07 in849.0 mb 0.00 in0.0 mm 0.00 in/hr0.0 mm/hr 0.00 in0.0 mm
09:11 AM 54.7°F12.6°C -5537.2°C - 5.0 mph SE8.0 kmh SE 7.4 mph11.9 kmh 25.07 in849.0 mb 0.00 in0.0 mm 0.00 in/hr0.0 mm/hr 0.00 in0.0 mm
09:16 AM 55.0°F12.8°C -5537.2°C - 4.0 mph SE6.4 kmh SE 6.9 mph11.1 kmh 25.07 in849.0 mb 0.00 in0.0 mm 0.00 in/hr0.0 mm/hr 0.00 in0.0 mm
09:21 AM 55.9°F13.3°C -5537.2°C - 4.0 mph SE6.4 kmh SE 7.8 mph12.6 kmh 25.07 in849.0 mb 0.00 in0.0 mm 0.00 in/hr0.0 mm/hr 0.00 in0.0 mm
09:26 AM 57.4°F14.1°C -5537.2°C - 3.0 mph SE4.8 kmh SE 5.4 mph8.7 kmh 25.07 in849.0 mb 0.00 in0.0 mm 0.00 in/hr0.0 mm/hr 0.00 in0.0 mm
09:31 AM 56.7°F13.7°C -5537.2°C - 3.0 mph ENE4.8 kmh ENE 6.7 mph10.8 kmh 25.07 in849.0 mb 0.00 in0.0 mm 0.00 in/hr0.0 mm/hr 0.00 in0.0 mm
09:36 AM 57.0°F13.9°C -5537.2°C - 4.0 mph N6.4 kmh N 6.3 mph10.1 kmh 25.07 in849.0 mb 0.00 in0.0 mm 0.00 in/hr0.0 mm/hr 0.00 in0.0 mm
09:41 AM 57.9°F14.4°C -5537.2°C - 3.0 mph N4.8 kmh N 4.5 mph7.2 kmh 25.07 in849.0 mb 0.00 in0.0 mm 0.00 in/hr0.0 mm/hr 0.00 in0.0 mm
09:46 AM 58.5°F14.7°C -5537.2°C - 2.0 mph N3.2 kmh N 5.8 mph9.3 kmh 25.07 in849.0 mb 0.00 in0.0 mm 0.00 in/hr0.0 mm/hr 0.00 in0.0 mm
09:51 AM 58.5°F14.7°C -5537.2°C - 2.0 mph N3.2 kmh N 6.3 mph10.1 kmh 25.07 in849.0 mb 0.00 in0.0 mm 0.00 in/hr0.0 mm/hr 0.00 in0.0 mm
09:56 AM 58.6°F14.8°C -5537.2°C - 3.0 mph NW4.8 kmh NW 6.3 mph10.1 kmh 25.07 in849.0 mb 0.00 in0.0 mm 0.00 in/hr0.0 mm/hr 0.00 in0.0 mm
10:01 AM 59.0°F15.0°C -5537.2°C - 4.0 mph WNW6.4 kmh WNW 7.8 mph12.6 kmh 25.07 in849.0 mb 0.00 in0.0 mm 0.00 in/hr0.0 mm/hr 0.00 in0.0 mm
10:06 AM 59.9°F15.5°C -5537.2°C - 4.0 mph WNW6.4 kmh WNW 5.8 mph9.3 kmh 25.07 in849.0 mb 0.00 in0.0 mm 0.00 in/hr0.0 mm/hr 0.00 in0.0 mm
10:11 AM 60.3°F15.7°C -5537.2°C - 3.0 mph W4.8 kmh W 6.3 mph10.1 kmh 25.07 in849.0 mb 0.00 in0.0 mm 0.00 in/hr0.0 mm/hr 0.00 in0.0 mm
10:16 AM 60.3°F15.7°C -5537.2°C - 5.0 mph NW8.0 kmh NW 8.7 mph14.0 kmh 25.07 in849.0 mb 0.00 in0.0 mm 0.00 in/hr0.0 mm/hr 0.00 in0.0 mm
10:21 AM 60.1°F15.6°C -5537.2°C - 5.0 mph NW8.0 kmh NW 6.9 mph11.1 kmh 25.07 in849.0 mb 0.00 in0.0 mm 0.00 in/hr0.0 mm/hr 0.00 in0.0 mm
10:26 AM 60.6°F15.9°C -5537.2°C - 4.0 mph SW6.4 kmh SW 5.8 mph9.3 kmh 25.07 in849.0 mb 0.00 in0.0 mm 0.00 in/hr0.0 mm/hr 0.00 in0.0 mm
10:31 AM 60.6°F15.9°C -5537.2°C - 4.0 mph S6.4 kmh S 7.8 mph12.6 kmh 25.07 in849.0 mb 0.00 in0.0 mm 0.00 in/hr0.0 mm/hr 0.00 in0.0 mm
10:36 AM 61.9°F16.6°C -5537.2°C - 4.0 mph N6.4 kmh N 6.3 mph10.1 kmh 25.07 in849.0 mb 0.00 in0.0 mm 0.00 in/hr0.0 mm/hr 0.00 in0.0 mm
10:41 AM 62.8°F17.1°C -5537.2°C - 4.0 mph N6.4 kmh N 6.9 mph11.1 kmh 25.07 in849.0 mb 0.00 in0.0 mm 0.00 in/hr0.0 mm/hr 0.00 in0.0 mm
10:47 AM 63.1°F17.3°C -5537.2°C - 4.0 mph NNW6.4 kmh NNW 6.7 mph10.8 kmh 25.07 in849.0 mb 0.00 in0.0 mm 0.00 in/hr0.0 mm/hr 0.00 in0.0 mm
10:52 AM 63.3°F17.4°C -5537.2°C - 4.0 mph N6.4 kmh N 6.7 mph10.8 kmh 25.07 in849.0 mb 0.00 in0.0 mm 0.00 in/hr0.0 mm/hr 0.00 in0.0 mm
10:57 AM 63.7°F17.6°C -5537.2°C - 4.0 mph NNE6.4 kmh NNE 7.4 mph11.9 kmh 25.04 in848.0 mb 0.00 in0.0 mm 0.00 in/hr0.0 mm/hr 0.00 in0.0 mm
11:02 AM 64.9°F18.3°C -5537.2°C - 3.0 mph NE4.8 kmh NE 4.9 mph7.9 kmh 25.04 in848.0 mb 0.00 in0.0 mm 0.00 in/hr0.0 mm/hr 0.00 in0.0 mm
11:07 AM 64.8°F18.2°C -5537.2°C - 3.0 mph NE4.8 kmh NE 8.7 mph14.0 kmh 25.04 in848.0 mb 0.00 in0.0 mm 0.00 in/hr0.0 mm/hr 0.00 in0.0 mm
11:12 AM 65.1°F18.4°C -5537.2°C - 4.0 mph NE6.4 kmh NE 7.4 mph11.9 kmh 25.04 in848.0 mb 0.00 in0.0 mm 0.00 in/hr0.0 mm/hr 0.00 in0.0 mm
11:17 AM 65.3°F18.5°C -5537.2°C - 3.0 mph NE4.8 kmh NE 6.9 mph11.1 kmh 25.04 in848.0 mb 0.00 in0.0 mm 0.00 in/hr0.0 mm/hr 0.00 in0.0 mm
11:22 AM 65.7°F18.7°C -5537.2°C - 5.0 mph NE8.0 kmh NE 11.0 mph17.7 kmh 25.04 in848.0 mb 0.00 in0.0 mm 0.00 in/hr0.0 mm/hr 0.00 in0.0 mm
11:27 AM 65.8°F18.8°C -5537.2°C - 6.0 mph NE9.7 kmh NE 8.7 mph14.0 kmh 25.04 in848.0 mb 0.00 in0.0 mm 0.00 in/hr0.0 mm/hr 0.00 in0.0 mm
11:32 AM 66.0°F18.9°C -5537.2°C - 5.0 mph NNE8.0 kmh NNE 9.2 mph14.8 kmh 25.04 in848.0 mb 0.00 in0.0 mm 0.00 in/hr0.0 mm/hr 0.00 in0.0 mm
11:37 AM 66.0°F18.9°C -5537.2°C - 5.0 mph NW8.0 kmh NW 7.8 mph12.6 kmh 25.04 in848.0 mb 0.00 in0.0 mm 0.00 in/hr0.0 mm/hr 0.00 in0.0 mm
11:42 AM 66.7°F19.3°C -5537.2°C - 5.0 mph NW8.0 kmh NW 10.5 mph16.9 kmh 25.04 in848.0 mb 0.00 in0.0 mm 0.00 in/hr0.0 mm/hr 0.00 in0.0 mm
11:47 AM 66.6°F19.2°C -5537.2°C - 5.0 mph ENE8.0 kmh ENE 9.6 mph15.4 kmh 25.04 in848.0 mb 0.00 in0.0 mm 0.00 in/hr0.0 mm/hr 0.00 in0.0 mm
11:52 AM 67.3°F19.6°C -5537.2°C - 5.0 mph NNE8.0 kmh NNE 8.3 mph13.4 kmh 25.04 in848.0 mb 0.00 in0.0 mm 0.00 in/hr0.0 mm/hr 0.00 in0.0 mm
11:57 AM 67.3°F19.6°C -5537.2°C - 6.0 mph NNW9.7 kmh NNW 11.0 mph17.7 kmh 25.04 in848.0 mb 0.00 in0.0 mm 0.00 in/hr0.0 mm/hr 0.00 in0.0 mm
12:02 PM 68.2°F20.1°C -5537.2°C - 5.0 mph NW8.0 kmh NW 6.3 mph10.1 kmh 25.04 in848.0 mb 0.00 in0.0 mm 0.00 in/hr0.0 mm/hr 0.00 in0.0 mm
12:07 PM 68.0°F20.0°C -5537.2°C - 4.0 mph NNW6.4 kmh NNW 9.6 mph15.4 kmh 25.04 in848.0 mb 0.00 in0.0 mm 0.00 in/hr0.0 mm/hr 0.00 in0.0 mm
12:12 PM 67.8°F19.9°C -5537.2°C - 6.0 mph N9.7 kmh N 11.0 mph17.7 kmh 25.04 in848.0 mb 0.00 in0.0 mm 0.00 in/hr0.0 mm/hr 0.00 in0.0 mm
12:17 PM 67.6°F19.8°C -5537.2°C - 7.0 mph NNW11.3 kmh NNW 11.6 mph18.7 kmh 25.04 in848.0 mb 0.00 in0.0 mm 0.00 in/hr0.0 mm/hr 0.00 in0.0 mm
12:22 PM 67.5°F19.7°C -5537.2°C - 7.0 mph NW11.3 kmh NW 12.1 mph19.5 kmh 25.04 in848.0 mb 0.00 in0.0 mm 0.00 in/hr0.0 mm/hr 0.00 in0.0 mm
12:27 PM 68.2°F20.1°C -5537.2°C - 6.0 mph NNW9.7 kmh NNW 10.1 mph16.3 kmh 25.01 in846.9 mb 0.00 in0.0 mm 0.00 in/hr0.0 mm/hr 0.00 in0.0 mm
12:32 PM 67.5°F19.7°C -5537.2°C - 6.0 mph N9.7 kmh N 11.2 mph18.0 kmh 25.01 in846.9 mb 0.00 in0.0 mm 0.00 in/hr0.0 mm/hr 0.00 in0.0 mm
12:37 PM 68.2°F20.1°C -5537.2°C - 5.0 mph NNE8.0 kmh NNE 8.3 mph13.4 kmh 25.01 in846.9 mb 0.00 in0.0 mm 0.00 in/hr0.0 mm/hr 0.00 in0.0 mm
12:42 PM 68.9°F20.5°C -5537.2°C - 5.0 mph N8.0 kmh N 13.0 mph20.9 kmh 25.01 in846.9 mb 0.00 in0.0 mm 0.00 in/hr0.0 mm/hr 0.00 in0.0 mm
12:47 PM 69.1°F20.6°C -5537.2°C - 7.0 mph NW11.3 kmh NW 11.6 mph18.7 kmh 25.01 in846.9 mb 0.00 in0.0 mm 0.00 in/hr0.0 mm/hr 0.00 in0.0 mm
12:52 PM 70.5°F21.4°C -5537.2°C - 5.0 mph WNW8.0 kmh WNW 8.7 mph14.0 kmh 25.01 in846.9 mb 0.00 in0.0 mm 0.00 in/hr0.0 mm/hr 0.00 in0.0 mm
12:57 PM 69.1°F20.6°C -5537.2°C - 5.0 mph NW8.0 kmh NW 10.5 mph16.9 kmh 25.01 in846.9 mb 0.00 in0.0 mm 0.00 in/hr0.0 mm/hr 0.00 in0.0 mm
01:02 PM 69.1°F20.6°C -5537.2°C - 7.0 mph N11.3 kmh N 9.6 mph15.4 kmh 25.01 in846.9 mb 0.00 in0.0 mm 0.00 in/hr0.0 mm/hr 0.00 in0.0 mm
01:07 PM 70.0°F21.1°C -5537.2°C - 6.0 mph NW9.7 kmh NW 8.7 mph14.0 kmh 25.01 in846.9 mb 0.00 in0.0 mm 0.00 in/hr0.0 mm/hr 0.00 in0.0 mm
01:12 PM 71.1°F21.7°C -5537.2°C - 6.0 mph NW9.7 kmh NW 11.0 mph17.7 kmh 25.01 in846.9 mb 0.00 in0.0 mm 0.00 in/hr0.0 mm/hr 0.00 in0.0 mm
01:17 PM 69.8°F21.0°C -5537.2°C - 8.0 mph NW12.9 kmh NW 11.6 mph18.7 kmh 25.01 in846.9 mb 0.00 in0.0 mm 0.00 in/hr0.0 mm/hr 0.00 in0.0 mm
01:22 PM 69.8°F21.0°C -5537.2°C - 8.0 mph NW12.9 kmh NW 11.2 mph18.0 kmh 25.01 in846.9 mb 0.00 in0.0 mm 0.00 in/hr0.0 mm/hr 0.00 in0.0 mm
01:27 PM 70.5°F21.4°C -5537.2°C - 7.0 mph WNW11.3 kmh WNW 10.5 mph16.9 kmh 24.98 in845.9 mb 0.00 in0.0 mm 0.00 in/hr0.0 mm/hr 0.00 in0.0 mm
01:32 PM 70.5°F21.4°C -5537.2°C - 7.0 mph NW11.3 kmh NW 11.6 mph18.7 kmh 24.98 in845.9 mb 0.00 in0.0 mm 0.00 in/hr0.0 mm/hr 0.00 in0.0 mm
01:37 PM 70.3°F21.3°C -5537.2°C - 8.0 mph N12.9 kmh N 11.2 mph18.0 kmh 24.98 in845.9 mb 0.00 in0.0 mm 0.00 in/hr0.0 mm/hr 0.00 in0.0 mm
01:42 PM 70.7°F21.5°C -5537.2°C - 7.0 mph NW11.3 kmh NW 10.5 mph16.9 kmh 24.98 in845.9 mb 0.00 in0.0 mm 0.00 in/hr0.0 mm/hr 0.00 in0.0 mm
01:47 PM 70.3°F21.3°C -5537.2°C - 6.0 mph N9.7 kmh N 9.6 mph15.4 kmh 24.98 in845.9 mb 0.00 in0.0 mm 0.00 in/hr0.0 mm/hr 0.00 in0.0 mm
01:52 PM 71.1°F21.7°C -5537.2°C - 6.0 mph NNE9.7 kmh NNE 7.4 mph11.9 kmh 24.98 in845.9 mb 0.00 in0.0 mm 0.00 in/hr0.0 mm/hr 0.00 in0.0 mm
01:57 PM 71.2°F21.8°C -5537.2°C - 5.0 mph N8.0 kmh N 8.3 mph13.4 kmh 24.98 in845.9 mb 0.00 in0.0 mm 0.00 in/hr0.0 mm/hr 0.00 in0.0 mm
02:02 PM 72.0°F22.2°C -5537.2°C - 5.0 mph NNW8.0 kmh NNW 8.3 mph13.4 kmh 24.98 in845.9 mb 0.00 in0.0 mm 0.00 in/hr0.0 mm/hr 0.00 in0.0 mm
02:07 PM 71.8°F22.1°C -5537.2°C - 5.0 mph NW8.0 kmh NW 10.5 mph16.9 kmh 24.98 in845.9 mb 0.00 in0.0 mm 0.00 in/hr0.0 mm/hr 0.00 in0.0 mm
02:12 PM 74.1°F23.4°C -5537.2°C - 5.0 mph N8.0 kmh N 6.3 mph10.1 kmh 24.98 in845.9 mb 0.00 in0.0 mm 0.00 in/hr0.0 mm/hr 0.00 in0.0 mm
02:17 PM 72.3°F22.4°C -5537.2°C - 4.0 mph ESE6.4 kmh ESE 8.7 mph14.0 kmh 24.98 in845.9 mb 0.00 in0.0 mm 0.00 in/hr0.0 mm/hr 0.00 in0.0 mm
02:22 PM 73.0°F22.8°C -5537.2°C - 3.0 mph SE4.8 kmh SE 5.8 mph9.3 kmh 24.98 in845.9 mb 0.00 in0.0 mm 0.00 in/hr0.0 mm/hr 0.00 in0.0 mm
02:28 PM 73.9°F23.3°C -5537.2°C - 4.0 mph ESE6.4 kmh ESE 10.5 mph16.9 kmh 24.95 in844.9 mb 0.00 in0.0 mm 0.00 in/hr0.0 mm/hr 0.00 in0.0 mm
02:33 PM 72.3°F22.4°C -5537.2°C - 5.0 mph NNW8.0 kmh NNW 11.0 mph17.7 kmh 24.95 in844.9 mb 0.00 in0.0 mm 0.00 in/hr0.0 mm/hr 0.00 in0.0 mm
02:38 PM 73.4°F23.0°C -5537.2°C - 4.0 mph WNW6.4 kmh WNW 6.7 mph10.8 kmh 24.95 in844.9 mb 0.00 in0.0 mm 0.00 in/hr0.0 mm/hr 0.00 in0.0 mm
02:43 PM 72.9°F22.7°C -5537.2°C - 4.0 mph SSW6.4 kmh SSW 8.3 mph13.4 kmh 24.95 in844.9 mb 0.00 in0.0 mm 0.00 in/hr0.0 mm/hr 0.00 in0.0 mm
02:48 PM 74.1°F23.4°C -5537.2°C - 5.0 mph ENE8.0 kmh ENE 11.0 mph17.7 kmh 24.95 in844.9 mb 0.00 in0.0 mm 0.00 in/hr0.0 mm/hr 0.00 in0.0 mm
02:53 PM 74.3°F23.5°C -5537.2°C - 5.0 mph NNW8.0 kmh NNW 8.3 mph13.4 kmh 24.95 in844.9 mb 0.00 in0.0 mm 0.00 in/hr0.0 mm/hr 0.00 in0.0 mm
02:58 PM 75.0°F23.9°C -5537.2°C - 4.0 mph WNW6.4 kmh WNW 6.7 mph10.8 kmh 24.95 in844.9 mb 0.00 in0.0 mm 0.00 in/hr0.0 mm/hr 0.00 in0.0 mm
03:08 PM 75.7°F24.3°C -5537.2°C - 8.0 mph NW12.9 kmh NW 16.8 mph27.0 kmh 24.95 in844.9 mb 0.00 in0.0 mm 0.00 in/hr0.0 mm/hr 0.00 in0.0 mm
03:13 PM 75.7°F24.3°C -5537.2°C - 8.0 mph SW12.9 kmh SW 13.4 mph21.6 kmh 24.95 in844.9 mb 0.00 in0.0 mm 0.00 in/hr0.0 mm/hr 0.00 in0.0 mm
03:18 PM 75.9°F24.4°C -5537.2°C - 7.0 mph SW11.3 kmh SW 13.9 mph22.4 kmh 24.95 in844.9 mb 0.00 in0.0 mm 0.00 in/hr0.0 mm/hr 0.00 in0.0 mm
03:23 PM 75.6°F24.2°C -5537.2°C - 7.0 mph SW11.3 kmh SW 12.1 mph19.5 kmh 24.95 in844.9 mb 0.00 in0.0 mm 0.00 in/hr0.0 mm/hr 0.00 in0.0 mm
03:28 PM 75.4°F24.1°C -5537.2°C - 8.0 mph SW12.9 kmh SW 14.3 mph23.0 kmh 24.92 in843.9 mb 0.00 in0.0 mm 0.00 in/hr0.0 mm/hr 0.00 in0.0 mm
03:33 PM 75.4°F24.1°C -5537.2°C - 7.0 mph SW11.3 kmh SW 11.6 mph18.7 kmh 24.92 in843.9 mb 0.00 in0.0 mm 0.00 in/hr0.0 mm/hr 0.00 in0.0 mm
03:38 PM 75.6°F24.2°C -5537.2°C - 6.0 mph SSW9.7 kmh SSW 14.8 mph23.8 kmh 24.92 in843.9 mb 0.00 in0.0 mm 0.00 in/hr0.0 mm/hr 0.00 in0.0 mm
03:43 PM 74.8°F23.8°C -5537.2°C - 8.0 mph SW12.9 kmh SW 14.8 mph23.8 kmh 24.92 in843.9 mb 0.00 in0.0 mm 0.00 in/hr0.0 mm/hr 0.00 in0.0 mm
03:48 PM 75.0°F23.9°C -5537.2°C - 8.0 mph WSW12.9 kmh WSW 11.2 mph18.0 kmh 24.92 in843.9 mb 0.00 in0.0 mm 0.00 in/hr0.0 mm/hr 0.00 in0.0 mm
03:53 PM 75.0°F23.9°C -5537.2°C - 8.0 mph WSW12.9 kmh WSW 14.3 mph23.0 kmh 24.92 in843.9 mb 0.00 in0.0 mm 0.00 in/hr0.0 mm/hr 0.00 in0.0 mm
03:58 PM 75.0°F23.9°C -5537.2°C - 8.0 mph SW12.9 kmh SW 11.2 mph18.0 kmh 24.92 in843.9 mb 0.00 in0.0 mm 0.00 in/hr0.0 mm/hr 0.00 in0.0 mm
04:03 PM 75.4°F24.1°C -5537.2°C - 6.0 mph WSW9.7 kmh WSW 12.1 mph19.5 kmh 24.92 in843.9 mb 0.00 in0.0 mm 0.00 in/hr0.0 mm/hr 0.00 in0.0 mm
04:08 PM 75.2°F24.0°C -5537.2°C - 7.0 mph WSW11.3 kmh WSW 15.2 mph24.5 kmh 24.92 in843.9 mb 0.00 in0.0 mm 0.00 in/hr0.0 mm/hr 0.00 in0.0 mm
04:13 PM 76.5°F24.7°C -5537.2°C - 7.0 mph W11.3 kmh W 10.5 mph16.9 kmh 24.92 in843.9 mb 0.00 in0.0 mm 0.00 in/hr0.0 mm/hr 0.00 in0.0 mm
04:18 PM 76.1°F24.5°C -5537.2°C - 8.0 mph W12.9 kmh W 20.1 mph32.3 kmh 24.92 in843.9 mb 0.00 in0.0 mm 0.00 in/hr0.0 mm/hr 0.00 in0.0 mm
04:23 PM 76.5°F24.7°C -5537.2°C - 6.0 mph W9.7 kmh W 7.8 mph12.6 kmh 24.92 in843.9 mb 0.00 in0.0 mm 0.00 in/hr0.0 mm/hr 0.00 in0.0 mm
04:28 PM 75.9°F24.4°C -5537.2°C - 6.0 mph W9.7 kmh W 16.8 mph27.0 kmh 24.92 in843.9 mb 0.00 in0.0 mm 0.00 in/hr0.0 mm/hr 0.00 in0.0 mm
04:33 PM 75.6°F24.2°C -5537.2°C - 8.0 mph W12.9 kmh W 17.2 mph27.7 kmh 24.92 in843.9 mb 0.00 in0.0 mm 0.00 in/hr0.0 mm/hr 0.00 in0.0 mm
04:38 PM 75.7°F24.3°C -5537.2°C - 8.0 mph WSW12.9 kmh WSW 16.8 mph27.0 kmh 24.92 in843.9 mb 0.00 in0.0 mm 0.00 in/hr0.0 mm/hr 0.00 in0.0 mm
04:43 PM 75.6°F24.2°C -5537.2°C - 10.0 mph W16.1 kmh W 17.7 mph28.5 kmh 24.89 in842.9 mb 0.00 in0.0 mm 0.00 in/hr0.0 mm/hr 0.00 in0.0 mm
04:48 PM 74.8°F23.8°C -5537.2°C - 10.0 mph W16.1 kmh W 11.6 mph18.7 kmh 24.89 in842.9 mb 0.00 in0.0 mm 0.00 in/hr0.0 mm/hr 0.00 in0.0 mm
04:54 PM 76.3°F24.6°C -5537.2°C - 8.0 mph W12.9 kmh W 14.3 mph23.0 kmh 24.89 in842.9 mb 0.00 in0.0 mm 0.00 in/hr0.0 mm/hr 0.00 in0.0 mm
04:59 PM 77.5°F25.3°C -5537.2°C - 8.0 mph WSW12.9 kmh WSW 14.3 mph23.0 kmh 24.89 in842.9 mb 0.00 in0.0 mm 0.00 in/hr0.0 mm/hr 0.00 in0.0 mm
05:04 PM 76.3°F24.6°C -5537.2°C - 10.0 mph WSW16.1 kmh WSW 21.9 mph35.2 kmh 24.89 in842.9 mb 0.00 in0.0 mm 0.00 in/hr0.0 mm/hr 0.00 in0.0 mm
05:09 PM 74.8°F23.8°C -5537.2°C - 14.0 mph WNW22.5 kmh WNW 23.7 mph38.1 kmh 24.89 in842.9 mb 0.00 in0.0 mm 0.00 in/hr0.0 mm/hr 0.00 in0.0 mm
05:14 PM 74.8°F23.8°C -5537.2°C - 12.0 mph W19.3 kmh W 15.2 mph24.5 kmh 24.89 in842.9 mb 0.00 in0.0 mm 0.00 in/hr0.0 mm/hr 0.00 in0.0 mm
05:19 PM 75.2°F24.0°C -5537.2°C - 9.0 mph WSW14.5 kmh WSW 15.9 mph25.6 kmh 24.89 in842.9 mb 0.00 in0.0 mm 0.00 in/hr0.0 mm/hr 0.00 in0.0 mm
05:24 PM 74.7°F23.7°C -5537.2°C - 9.0 mph SW14.5 kmh SW 14.8 mph23.8 kmh 24.89 in842.9 mb 0.00 in0.0 mm 0.00 in/hr0.0 mm/hr 0.00 in0.0 mm
05:29 PM 74.5°F23.6°C -5537.2°C - 9.0 mph SW14.5 kmh SW 15.4 mph24.8 kmh 24.89 in842.9 mb 0.00 in0.0 mm 0.00 in/hr0.0 mm/hr 0.00 in0.0 mm
05:34 PM 74.1°F23.4°C -5537.2°C - 8.0 mph WSW12.9 kmh WSW 10.5 mph16.9 kmh 24.89 in842.9 mb 0.00 in0.0 mm 0.00 in/hr0.0 mm/hr 0.00 in0.0 mm
05:39 PM 74.3°F23.5°C -5537.2°C - 6.0 mph W9.7 kmh W 10.5 mph16.9 kmh 24.89 in842.9 mb 0.00 in0.0 mm 0.00 in/hr0.0 mm/hr 0.00 in0.0 mm
05:44 PM 73.9°F23.3°C -5537.2°C - 7.0 mph WNW11.3 kmh WNW 13.4 mph21.6 kmh 24.89 in842.9 mb 0.00 in0.0 mm 0.00 in/hr0.0 mm/hr 0.00 in0.0 mm
05:49 PM 73.8°F23.2°C -5537.2°C - 9.0 mph W14.5 kmh W 13.9 mph22.4 kmh 24.89 in842.9 mb 0.00 in0.0 mm 0.00 in/hr0.0 mm/hr 0.00 in0.0 mm
05:54 PM 73.8°F23.2°C -5537.2°C - 8.0 mph WSW12.9 kmh WSW 10.5 mph16.9 kmh 24.89 in842.9 mb 0.00 in0.0 mm 0.00 in/hr0.0 mm/hr 0.00 in0.0 mm
05:59 PM 73.8°F23.2°C -5537.2°C - 8.0 mph W12.9 kmh W 15.4 mph24.8 kmh 24.89 in842.9 mb 0.00 in0.0 mm 0.00 in/hr0.0 mm/hr 0.00 in0.0 mm